Time;durP1;ratioP1;P1;durP2;ratioP2;P2;SDS_P1;SDS_P2;PMS_P1;PMS_P2;Temp;Humidity;BMP_temperature;BMP_pressure;BME280_temperature;BME280_humidity;BME280_pressure;Samples;Min_cycle;Max_cycle;Signal;HPM_P1;HPM_P2
2022/10/08 00:02:20;;;;;;;8.52;3.92;;;;;;;10.70;74.91;98908.59;5048019;28;20048;-82
2022/10/08 00:04:46;;;;;;;4.85;3.28;;;;;;;10.79;75.12;98915.91;5026000;28;20063;-81
2022/10/08 00:07:11;;;;;;;5.22;3.15;;;;;;;10.67;74.64;98907.25;5044097;28;20555;-82
2022/10/08 00:09:37;;;;;;;10.45;3.20;;;;;;;10.72;75.20;98922.50;5048060;28;20495;-82
2022/10/08 00:12:02;;;;;;;8.75;3.72;;;;;;;10.75;75.48;98901.47;5011847;28;20473;-81
2022/10/08 00:14:27;;;;;;;6.10;3.53;;;;;;;10.77;75.28;98914.59;5029837;28;20033;-81
2022/10/08 00:16:53;;;;;;;6.43;3.50;;;;;;;10.66;76.09;98913.63;5032810;28;20033;-81
2022/10/08 00:19:18;;;;;;;9.35;3.65;;;;;;;10.61;76.13;98913.56;5043890;28;20029;-82
2022/10/08 00:21:44;;;;;;;9.55;3.88;;;;;;;10.55;76.34;98901.19;5047389;28;20396;-81
2022/10/08 00:24:15;;;;;;;11.30;4.60;;;;;;;10.57;75.98;98910.56;5013588;28;20484;-81
2022/10/08 00:26:41;;;;;;;7.30;3.60;;;;;;;10.49;76.68;98900.31;5033416;28;20039;-82
2022/10/08 00:29:08;;;;;;;6.18;3.88;;;;;;;10.45;77.15;98891.19;5052125;28;20033;-81
2022/10/08 00:31:39;;;;;;;7.88;4.47;;;;;;;10.61;77.34;98910.09;5046553;28;20029;-81
2022/10/08 00:34:08;;;;;;;6.25;3.58;;;;;;;10.70;77.15;98913.94;5050865;28;20021;-81
2022/10/08 00:36:36;;;;;;;5.93;3.60;;;;;;;10.62;77.39;98912.50;5050332;28;20025;-81
2022/10/08 00:39:06;;;;;;;10.27;3.88;;;;;;;10.57;78.18;98892.97;5030657;28;20778;-81
2022/10/08 00:41:34;;;;;;;12.82;5.45;;;;;;;10.69;78.50;98912.31;5056068;28;20051;-81
2022/10/08 00:44:02;;;;;;;10.95;4.53;;;;;;;10.51;78.68;98902.75;5034515;28;20033;-81
2022/10/08 00:46:38;;;;;;;9.27;5.07;;;;;;;10.53;79.58;98916.66;5015508;28;20072;-82
2022/10/08 00:49:12;;;;;;;10.85;5.50;;;;;;;10.67;79.13;98917.09;5031469;28;20155;-81
2022/10/08 00:51:48;;;;;;;8.60;4.75;;;;;;;10.60;79.13;98905.78;5033498;28;20503;-81
2022/10/08 00:54:15;;;;;;;15.93;6.97;;;;;;;10.61;79.39;98910.91;5051190;28;20465;-81
2022/10/08 00:56:41;;;;;;;8.00;4.47;;;;;;;10.49;79.01;98896.84;5034062;28;20083;-80
2022/10/08 00:59:08;;;;;;;13.27;4.80;;;;;;;10.69;78.84;98904.31;5030174;28;20049;-81
2022/10/08 01:01:36;;;;;;;13.93;5.40;;;;;;;10.70;78.80;98900.59;5036639;28;20132;-81
2022/10/08 01:04:05;;;;;;;8.70;4.00;;;;;;;10.60;79.00;98887.09;5049420;28;20040;-81
2022/10/08 01:06:36;;;;;;;7.45;4.30;;;;;;;10.74;79.42;98915.88;5038418;28;20079;-81
2022/10/08 01:09:10;;;;;;;13.63;4.68;;;;;;;10.67;78.79;98893.88;5023075;28;20060;-81
2022/10/08 01:11:36;;;;;;;14.75;5.38;;;;;;;10.82;78.75;98917.28;5050261;28;20592;-81
2022/10/08 01:14:12;;;;;;;9.75;4.95;;;;;;;10.77;78.86;98918.03;5034149;28;20104;-81
2022/10/08 01:16:57;;;;;;;10.90;4.82;;;;;;;10.65;78.76;98901.34;5054143;28;20048;-81
2022/10/08 01:19:41;;;;;;;15.30;4.43;;;;;;;10.77;78.42;98909.25;5041391;28;20035;-81
2022/10/08 01:22:16;;;;;;;11.05;4.30;;;;;;;10.78;78.66;98903.66;5049374;28;20029;-81
2022/10/08 01:27:42;;;;;;;14.55;5.22;;;;;;;10.72;77.73;98898.50;5029547;28;20036;-81
2022/10/08 01:30:13;;;;;;;9.05;4.88;;;;;;;10.79;78.70;98910.59;5051984;28;20431;-81
2022/10/08 01:32:47;;;;;;;11.18;5.10;;;;;;;10.60;78.35;98897.78;5047756;28;20046;-81
2022/10/08 01:35:19;;;;;;;9.05;4.60;;;;;;;10.66;77.91;98880.81;5033584;28;20170;-81
2022/10/08 01:37:45;;;;;;;9.23;4.25;;;;;;;10.75;78.14;98904.13;5050946;28;20436;-81
2022/10/08 01:40:17;;;;;;;12.63;4.90;;;;;;;10.81;77.98;98900.47;5036746;28;20036;-81
2022/10/08 01:42:43;;;;;;;12.63;5.38;;;;;;;10.75;78.45;98903.31;5042708;28;20036;-81
2022/10/08 01:45:21;;;;;;;11.63;4.65;;;;;;;10.78;77.99;98903.66;5017685;28;20074;-80
2022/10/08 01:47:48;;;;;;;15.15;5.90;;;;;;;10.71;78.03;98905.69;5048048;28;20492;-80
2022/10/08 01:50:20;;;;;;;17.75;5.20;;;;;;;10.75;77.71;98896.13;5034103;28;20029;-80
2022/10/08 01:52:51;;;;;;;8.93;4.85;;;;;;;10.51;78.00;98881.38;5044703;28;20028;-81
2022/10/08 01:55:23;;;;;;;10.32;5.78;;;;;;;10.64;78.42;98896.25;5032985;28;20033;-81
2022/10/08 01:57:50;;;;;;;11.13;4.57;;;;;;;10.75;77.89;98906.81;5049195;28;20152;-81
2022/10/08 02:00:16;;;;;;;12.27;5.55;;;;;;;10.65;77.70;98887.19;5032894;28;20364;-81
2022/10/08 02:02:42;;;;;;;11.50;5.95;;;;;;;10.68;78.11;98903.50;5060915;28;20033;-81
2022/10/08 02:05:08;;;;;;;12.70;5.18;;;;;;;10.67;77.50;98914.44;5043356;28;20062;-81
2022/10/08 02:07:41;;;;;;;14.30;5.53;;;;;;;10.57;78.08;98882.28;5032326;28;20025;-81
2022/10/08 02:10:14;;;;;;;13.60;4.68;;;;;;;10.64;77.29;98897.03;5010007;28;20041;-81
2022/10/08 02:12:40;;;;;;;15.80;5.70;;;;;;;10.73;77.67;98905.44;5047327;28;20036;-81
2022/10/08 02:15:21;;;;;;;9.73;5.40;;;;;;;10.42;77.90;98880.19;5031085;28;20032;-81
2022/10/08 02:18:06;;;;;;;8.88;5.40;;;;;;;10.69;76.94;98898.97;5047317;28;20031;-81
2022/10/08 02:21:04;;;;;;;11.35;4.90;;;;;;;10.62;78.02;98899.16;5032284;28;20044;-81
2022/10/08 02:23:42;;;;;;;6.07;4.32;;;;;;;10.52;77.50;98872.34;5046084;28;20041;-82
2022/10/08 02:26:12;;;;;;;10.38;5.40;;;;;;;10.65;77.83;98889.84;5041457;28;20107;-81
2022/10/08 02:28:49;;;;;;;13.10;4.75;;;;;;;10.50;77.49;98891.28;5047496;28;20037;-81
2022/10/08 02:31:24;;;;;;;10.20;4.88;;;;;;;10.44;77.17;98875.44;5049560;28;20029;-81
2022/10/08 02:33:59;;;;;;;9.48;4.80;;;;;;;10.53;77.83;98898.78;5030906;28;20526;-81
2022/10/08 02:36:33;;;;;;;17.63;5.00;;;;;;;10.54;77.74;98899.59;5049905;28;20958;-81
2022/10/08 02:39:02;;;;;;;8.77;5.25;;;;;;;10.50;77.95;98896.63;5028993;28;20028;-81
2022/10/08 02:41:51;;;;;;;10.40;4.78;;;;;;;10.66;76.75;98891.47;5031603;28;20037;-81
2022/10/08 02:44:25;;;;;;;5.10;3.88;;;;;;;10.68;77.19;98894.72;5030861;28;20033;-81
2022/10/08 02:46:55;;;;;;;10.32;5.20;;;;;;;10.59;77.21;98893.50;5046365;28;20037;-81
2022/10/08 02:49:27;;;;;;;7.57;4.63;;;;;;;10.51;77.18;98882.22;5027772;28;20033;-81
2022/10/08 02:51:54;;;;;;;9.85;5.25;;;;;;;10.40;77.12;98874.31;5047855;28;20108;-81
2022/10/08 02:54:21;;;;;;;11.68;4.97;;;;;;;10.49;76.79;98891.50;5026655;28;20036;-81
2022/10/08 02:56:59;;;;;;;11.68;4.15;;;;;;;10.23;77.36;98873.53;5047814;28;20154;-81
2022/10/08 02:59:25;;;;;;;10.52;4.97;;;;;;;10.32;77.52;98880.88;5051799;28;20040;-81
2022/10/08 03:01:56;;;;;;;10.20;4.68;;;;;;;10.42;77.46;98889.00;5019869;28;20672;-81
2022/10/08 03:04:28;;;;;;;8.80;5.22;;;;;;;10.39;76.99;98884.19;5032109;28;21524;-81
2022/10/08 03:06:54;;;;;;;10.85;4.50;;;;;;;10.22;76.99;98869.28;5049879;28;20685;-81
2022/10/08 03:09:22;;;;;;;10.15;4.50;;;;;;;10.40;76.80;98899.13;5035799;28;20412;-81
2022/10/08 03:11:48;;;;;;;15.73;5.72;;;;;;;10.13;77.48;98882.22;5059684;28;20204;-81
2022/10/08 03:14:17;;;;;;;6.18;4.32;;;;;;;10.10;77.73;98888.00;5042608;28;21740;-81
2022/10/08 03:16:44;;;;;;;7.68;4.57;;;;;;;10.19;77.59;98897.22;5009408;28;20025;-81
2022/10/08 03:19:12;;;;;;;8.73;5.13;;;;;;;10.20;78.10;98898.84;5047786;28;20409;-81
2022/10/08 03:21:39;;;;;;;18.23;5.50;;;;;;;10.08;77.92;98894.63;5031059;28;20098;-81
2022/10/08 03:24:06;;;;;;;6.85;4.85;;;;;;;10.01;78.25;98891.31;5043248;28;20044;-81
2022/10/08 03:26:31;;;;;;;8.02;4.95;;;;;;;10.03;77.69;98882.00;5043443;28;20039;-81
2022/10/08 03:28:57;;;;;;;8.50;4.05;;;;;;;10.12;78.25;98898.44;5049374;28;20723;-81
2022/10/08 03:31:22;;;;;;;11.95;5.60;;;;;;;9.86;77.24;98854.56;5026402;28;20554;-81
2022/10/08 03:33:52;;;;;;;12.95;5.60;;;;;;;10.13;77.47;98889.41;5023393;28;20021;-81
2022/10/08 03:36:18;;;;;;;9.20;4.68;;;;;;;10.09;77.55;98885.59;5020798;28;20044;-81
2022/10/08 03:38:43;;;;;;;10.43;4.60;;;;;;;10.04;77.74;98872.97;5015333;28;20076;-81
2022/10/08 03:41:09;;;;;;;12.20;3.97;;;;;;;10.19;78.16;98896.41;5028478;28;20033;-81
2022/10/08 03:43:35;;;;;;;12.10;4.18;;;;;;;10.27;77.65;98902.16;5021181;28;20143;-81
2022/10/08 03:46:01;;;;;;;13.38;3.80;;;;;;;10.16;77.44;98879.03;5026487;28;20481;-80
2022/10/08 03:48:26;;;;;;;9.25;4.13;;;;;;;10.21;77.65;98884.47;5027204;28;20043;-81
2022/10/08 03:50:54;;;;;;;11.57;3.80;;;;;;;10.24;77.97;98886.63;5006801;28;20041;-81
2022/10/08 03:53:20;;;;;;;14.57;3.88;;;;;;;10.11;78.10;98868.28;5042899;28;20033;-82
2022/10/08 03:55:45;;;;;;;11.55;5.25;;;;;;;10.35;77.99;98899.06;5029441;28;20036;-81
2022/10/08 03:58:11;;;;;;;8.27;3.95;;;;;;;10.41;78.02;98899.94;5028214;28;20029;-81
2022/10/08 04:00:36;;;;;;;14.23;3.75;;;;;;;10.38;77.44;98887.91;5049692;28;20032;-82
2022/10/08 04:03:02;;;;;;;12.13;3.90;;;;;;;10.48;77.96;98889.91;5029962;28;20120;-81
2022/10/08 04:05:27;;;;;;;7.78;4.00;;;;;;;10.44;77.38;98878.91;5036198;28;20036;-81
2022/10/08 04:07:53;;;;;;;10.05;4.68;;;;;;;10.50;78.11;98899.28;5012128;28;20029;-81
2022/10/08 04:10:18;;;;;;;11.68;4.93;;;;;;;10.44;77.66;98867.44;5031102;28;20175;-81
2022/10/08 04:12:44;;;;;;;10.95;4.40;;;;;;;10.53;77.63;98896.09;5044649;28;20041;-81
2022/10/08 04:15:10;;;;;;;16.27;4.55;;;;;;;10.57;77.18;98891.09;5018219;28;20520;-81
2022/10/08 04:17:35;;;;;;;10.05;3.83;;;;;;;10.57;77.01;98896.44;5024712;28;20029;-82
2022/10/08 04:20:00;;;;;;;9.30;3.65;;;;;;;10.40;77.24;98867.13;5030646;28;20110;-82
2022/10/08 04:22:26;;;;;;;10.20;4.13;;;;;;;10.51;77.49;98889.41;5022330;28;20024;-81
2022/10/08 04:24:51;;;;;;;13.40;3.58;;;;;;;10.23;78.50;98873.53;5047616;28;20033;-81
2022/10/08 04:27:16;;;;;;;11.90;3.75;;;;;;;10.19;78.52;98875.09;5029070;28;20112;-82
2022/10/08 04:29:42;;;;;;;8.18;3.45;;;;;;;10.26;77.98;98887.22;5026155;28;20045;-82
2022/10/08 04:32:07;;;;;;;9.18;4.45;;;;;;;10.05;78.22;98869.25;5012226;28;20116;-81
2022/10/08 04:34:32;;;;;;;9.65;4.43;;;;;;;10.12;78.54;98864.59;5029707;28;20489;-81
2022/10/08 04:36:58;;;;;;;10.23;4.35;;;;;;;10.19;78.55;98880.41;5028493;28;20396;-82
2022/10/08 04:39:23;;;;;;;9.55;3.35;;;;;;;10.09;78.02;98872.25;5012719;28;20067;-82
2022/10/08 04:41:49;;;;;;;13.30;4.53;;;;;;;9.76;79.40;98838.44;5029038;28;20461;-81
2022/10/08 04:44:14;;;;;;;12.45;4.15;;;;;;;9.97;78.46;98874.19;4991215;28;20108;-81
2022/10/08 04:46:39;;;;;;;8.63;4.18;;;;;;;10.18;78.86;98892.94;5046398;28;20032;-81
2022/10/08 04:49:05;;;;;;;11.57;4.25;;;;;;;10.21;78.44;98900.47;5012422;28;20634;-81
2022/10/08 04:51:30;;;;;;;10.00;3.75;;;;;;;10.10;77.85;98873.84;5027896;28;20036;-81
2022/10/08 04:53:56;;;;;;;8.98;3.45;;;;;;;10.16;78.63;98903.03;5009002;28;20025;-81
2022/10/08 04:56:24;;;;;;;14.60;4.00;;;;;;;10.17;77.83;98887.84;5048371;28;20032;-81
2022/10/08 04:58:50;;;;;;;9.75;3.90;;;;;;;10.16;77.85;98889.72;5010780;28;20024;-82
2022/10/08 05:01:18;;;;;;;16.40;4.75;;;;;;;10.11;77.52;98891.50;5024611;28;20035;-81
2022/10/08 05:03:46;;;;;;;8.18;3.40;;;;;;;9.92;78.79;98895.41;5046401;28;20032;-81
2022/10/08 05:06:13;;;;;;;12.35;4.47;;;;;;;9.95;78.26;98889.63;5026744;28;20090;-81
2022/10/08 05:08:39;;;;;;;7.85;3.53;;;;;;;10.08;78.00;98914.09;5014944;28;20224;-80
2022/10/08 05:11:06;;;;;;;14.02;4.40;;;;;;;9.56;79.08;98907.38;5023961;28;20473;-80
2022/10/08 05:13:31;;;;;;;9.85;5.10;;;;;;;9.36;79.73;98912.34;5049422;28;20416;-80
2022/10/08 05:16:03;;;;;;;10.55;3.83;;;;;;;9.51;80.93;98912.59;5031682;28;20036;-80
2022/10/08 05:18:29;;;;;;;11.38;4.32;;;;;;;9.58;79.08;98894.63;5032677;28;20029;-81
2022/10/08 05:20:55;;;;;;;9.95;4.30;;;;;;;9.91;78.39;98889.31;5049292;28;21301;-81
2022/10/08 05:23:21;;;;;;;9.80;3.45;;;;;;;10.09;77.52;98913.03;5013408;28;20029;-81
2022/10/08 05:25:46;;;;;;;9.70;3.30;;;;;;;10.15;77.52;98912.13;5035159;28;20040;-80
2022/10/08 05:28:12;;;;;;;8.10;3.40;;;;;;;9.98;77.19;98884.59;5052669;28;20075;-80
2022/10/08 05:30:37;;;;;;;17.83;3.50;;;;;;;9.99;77.17;98899.56;5017284;28;20032;-81
2022/10/08 05:33:03;;;;;;;9.02;3.08;;;;;;;9.99;77.62;98912.06;5028501;28;20086;-81
2022/10/08 05:35:28;;;;;;;7.63;3.35;;;;;;;9.91;77.70;98894.63;5033303;28;20468;-81
2022/10/08 05:37:53;;;;;;;11.85;3.63;;;;;;;9.94;77.52;98906.69;5047442;28;20568;-81
2022/10/08 05:40:19;;;;;;;11.10;3.17;;;;;;;9.75;78.39;98904.25;5029495;28;20037;-81
2022/10/08 05:42:45;;;;;;;11.23;3.83;;;;;;;9.97;77.48;98920.31;5049099;28;20538;-81
2022/10/08 05:45:11;;;;;;;12.23;4.72;;;;;;;9.94;78.23;98920.78;5031970;28;20045;-81
2022/10/08 05:47:36;;;;;;;13.02;3.88;;;;;;;9.80;78.14;98893.69;5028934;28;20404;-82
2022/10/08 05:50:01;;;;;;;10.52;3.40;;;;;;;9.69;79.25;98893.75;5056675;28;20036;-82
2022/10/08 05:52:27;;;;;;;9.35;3.17;;;;;;;9.88;78.68;98927.09;5024849;28;21674;-81
2022/10/08 05:54:52;;;;;;;9.20;3.22;;;;;;;9.72;78.69;98903.91;5020017;28;20047;-82
2022/10/08 05:57:17;;;;;;;6.32;3.20;;;;;;;9.91;78.50;98929.31;5028732;28;20041;-81
2022/10/08 05:59:43;;;;;;;9.63;2.90;;;;;;;9.90;78.39;98919.66;5030640;28;20033;-82
2022/10/08 06:02:09;;;;;;;16.60;3.65;;;;;;;9.71;78.59;98896.97;5028476;28;20427;-81
2022/10/08 06:04:35;;;;;;;6.07;3.35;;;;;;;9.79;79.33;98924.03;5028323;28;20025;-81
2022/10/08 06:07:00;;;;;;;8.55;3.97;;;;;;;9.75;78.69;98920.22;5027531;28;20499;-81
2022/10/08 06:09:26;;;;;;;10.93;3.30;;;;;;;9.79;79.06;98923.22;5047834;28;20071;-81
2022/10/08 06:11:51;;;;;;;7.93;3.58;;;;;;;10.00;78.70;98914.53;5024893;28;20393;-81
2022/10/08 06:14:18;;;;;;;9.63;3.75;;;;;;;9.82;79.17;98909.41;5017469;28;20039;-81
2022/10/08 06:16:43;;;;;;;16.73;3.53;;;;;;;10.07;78.50;98909.81;5016453;28;20044;-82
2022/10/08 06:19:09;;;;;;;9.95;3.58;;;;;;;10.03;78.96;98924.69;5014374;28;20443;-81
2022/10/08 06:21:35;;;;;;;12.05;3.38;;;;;;;9.97;78.83;98935.50;5031911;28;20020;-82
2022/10/08 06:24:03;;;;;;;16.85;4.53;;;;;;;10.05;78.65;98922.56;5050338;28;20135;-82
2022/10/08 06:26:31;;;;;;;11.82;3.72;;;;;;;10.14;78.92;98939.81;5030111;28;20043;-81
2022/10/08 06:28:57;;;;;;;8.88;3.78;;;;;;;9.99;79.45;98942.22;5029815;28;20048;-81
2022/10/08 06:31:23;;;;;;;7.07;3.67;;;;;;;10.15;78.81;98943.31;5046760;28;20037;-82
2022/10/08 06:33:48;;;;;;;13.65;3.58;;;;;;;9.90;79.25;98914.34;5035720;28;20021;-81
2022/10/08 06:36:15;;;;;;;15.15;4.07;;;;;;;10.04;79.17;98944.97;5051052;28;20116;-81
2022/10/08 06:38:41;;;;;;;11.38;4.47;;;;;;;10.09;78.47;98938.91;5047128;28;20056;-81
2022/10/08 06:41:06;;;;;;;7.30;3.28;;;;;;;10.13;79.33;98948.06;5025230;28;20033;-81
2022/10/08 06:43:31;;;;;;;11.10;3.65;;;;;;;10.26;78.79;98956.56;5012833;28;20036;-82
2022/10/08 06:46:03;;;;;;;11.50;3.90;;;;;;;10.16;79.27;98958.25;5011549;28;20051;-82
2022/10/08 06:48:28;;;;;;;10.00;3.17;;;;;;;10.26;78.91;98953.91;5024013;28;20116;-81
2022/10/08 06:50:58;;;;;;;8.40;3.45;;;;;;;10.42;78.55;98958.38;5024499;28;20094;-81
2022/10/08 06:53:23;;;;;;;9.43;3.80;;;;;;;10.24;78.41;98945.31;5047165;28;20020;-81
2022/10/08 06:55:55;;;;;;;13.57;3.80;;;;;;;10.16;80.03;98947.56;5047462;28;20025;-81
2022/10/08 06:58:20;;;;;;;8.90;3.22;;;;;;;10.48;78.20;98964.63;5021359;28;20108;-81
2022/10/08 07:00:45;;;;;;;8.25;3.08;;;;;;;10.34;79.60;98958.00;5039254;28;20124;-81
2022/10/08 07:03:11;;;;;;;14.65;4.13;;;;;;;10.51;78.62;98956.13;5047613;28;20054;-81
2022/10/08 07:05:36;;;;;;;11.00;3.90;;;;;;;10.60;78.43;98953.84;5009669;28;20034;-81
2022/10/08 07:08:01;;;;;;;12.63;3.58;;;;;;;10.76;78.17;98961.00;5019994;28;20041;-81
2022/10/08 07:10:27;;;;;;;9.73;3.78;;;;;;;10.73;78.51;98964.97;5006858;28;20035;-80
2022/10/08 07:12:52;;;;;;;11.57;3.63;;;;;;;10.86;77.59;98982.50;5010651;28;20610;-81
2022/10/08 07:15:17;;;;;;;8.82;3.45;;;;;;;10.79;78.91;98996.03;5012956;28;20037;-81
2022/10/08 07:17:43;;;;;;;10.75;3.83;;;;;;;10.80;78.85;98988.81;5040563;28;20134;-81
2022/10/08 07:20:08;;;;;;;12.40;3.42;;;;;;;10.89;77.87;99000.69;5019472;28;20052;-81
2022/10/08 07:22:34;;;;;;;17.02;3.78;;;;;;;10.81;78.50;98990.44;5047146;28;20078;-81
2022/10/08 07:25:00;;;;;;;10.63;3.85;;;;;;;10.97;77.74;99010.94;5032316;28;20037;-81
2022/10/08 07:27:25;;;;;;;17.80;4.82;;;;;;;10.79;79.13;99009.38;5041529;28;20044;-80
2022/10/08 07:29:51;;;;;;;13.15;3.78;;;;;;;10.82;78.49;99014.22;5024406;28;20033;-81
2022/10/08 07:32:16;;;;;;;12.25;4.00;;;;;;;10.66;79.14;99000.91;5006655;28;20033;-81
2022/10/08 07:34:41;;;;;;;11.43;3.58;;;;;;;10.82;78.04;99008.06;5046645;28;20029;-81
2022/10/08 07:37:07;;;;;;;12.88;4.20;;;;;;;10.89;78.80;99030.06;5026221;28;20068;-81
2022/10/08 07:39:32;;;;;;;12.00;3.47;;;;;;;10.85;78.41;99010.25;5041098;28;20049;-81
2022/10/08 07:41:57;;;;;;;10.43;4.22;;;;;;;10.75;78.53;99007.44;5036215;28;20052;-81
2022/10/08 07:44:23;;;;;;;8.63;3.75;;;;;;;10.87;78.70;99024.19;5003739;28;20064;-81
2022/10/08 07:46:52;;;;;;;13.73;4.25;;;;;;;10.83;79.24;99009.69;4988948;28;20033;-81
2022/10/08 07:49:19;;;;;;;12.48;4.50;;;;;;;10.88;79.56;99023.91;5043383;28;20099;-81
2022/10/08 07:51:45;;;;;;;8.27;3.47;;;;;;;11.02;79.73;99054.56;5021944;28;20210;-82
2022/10/08 07:54:14;;;;;;;14.30;3.90;;;;;;;10.96;80.07;99052.09;5026751;28;20476;-81
2022/10/08 07:56:40;;;;;;;7.82;3.92;;;;;;;10.77;80.28;99032.06;5040527;28;20041;-81
2022/10/08 07:59:05;;;;;;;15.32;4.50;;;;;;;10.82;80.80;99062.28;5018371;28;20033;-81
2022/10/08 08:01:32;;;;;;;7.60;4.75;;;;;;;10.74;81.37;99070.72;5020647;28;20033;-81
2022/10/08 08:04:01;;;;;;;11.05;4.68;;;;;;;10.69;82.39;99062.63;5040544;28;20053;-82
2022/10/08 08:06:27;;;;;;;12.30;5.00;;;;;;;10.79;81.57;99072.66;4993461;28;20132;-81
2022/10/08 08:08:53;;;;;;;11.25;4.90;;;;;;;10.69;83.23;99061.81;5026698;28;20566;-83
2022/10/08 08:11:21;;;;;;;8.70;4.53;;;;;;;10.76;82.64;99067.78;5040469;28;20029;-82
2022/10/08 08:13:47;;;;;;;11.73;4.20;;;;;;;10.90;82.47;99077.88;5043646;28;20028;-81
2022/10/08 08:16:16;;;;;;;7.45;4.30;;;;;;;10.90;82.60;99085.13;5022329;28;20465;-81
2022/10/08 08:18:44;;;;;;;19.92;4.70;;;;;;;10.72;83.61;99077.34;5025325;28;20049;-82
2022/10/08 08:21:11;;;;;;;9.13;4.78;;;;;;;10.87;83.10;99080.25;5022247;28;20094;-80
2022/10/08 08:23:39;;;;;;;11.80;4.90;;;;;;;10.86;83.26;99079.44;5026675;28;20226;-82
2022/10/08 08:26:17;;;;;;;10.55;4.25;;;;;;;10.80;83.32;99083.09;5027458;28;20500;-82
2022/10/08 08:28:43;;;;;;;15.27;4.88;;;;;;;10.68;84.13;99068.22;5023592;28;20086;-81
2022/10/08 08:31:17;;;;;;;14.82;5.22;;;;;;;10.72;84.27;99077.34;4998611;28;20044;-82
2022/10/08 08:33:49;;;;;;;11.88;4.28;;;;;;;10.88;84.59;99085.34;5017982;28;20028;-82
2022/10/08 08:36:15;;;;;;;10.45;4.05;;;;;;;10.72;85.49;99075.50;5042388;28;20033;-83
2022/10/08 08:38:40;;;;;;;9.75;5.18;;;;;;;10.69;84.91;99080.50;5022330;28;20098;-84
2022/10/08 08:41:06;;;;;;;6.82;3.70;;;;;;;10.74;85.17;99102.75;4999750;28;20104;-84
2022/10/08 08:43:32;;;;;;;10.23;4.63;;;;;;;10.73;83.95;99071.75;5022521;28;20045;-83
2022/10/08 08:45:58;;;;;;;8.40;5.10;;;;;;;10.86;84.94;99089.31;5014334;28;20396;-84
2022/10/08 08:48:27;;;;;;;15.38;4.65;;;;;;;10.84;84.47;99086.06;5049158;28;20032;-84
2022/10/08 08:50:55;;;;;;;12.52;4.22;;;;;;;10.81;83.47;99087.34;5027384;28;20167;-83
2022/10/08 08:53:21;;;;;;;10.77;4.55;;;;;;;10.79;83.91;99088.69;5044517;28;20045;-83
2022/10/08 08:55:50;;;;;;;11.27;4.60;;;;;;;10.88;84.06;99104.03;5041643;28;20037;-84
2022/10/08 08:58:38;;;;;;;9.25;4.43;;;;;;;10.90;84.23;99109.16;5025216;28;20024;-84
2022/10/08 09:01:28;;;;;;;8.27;4.70;;;;;;;10.98;83.80;99109.53;5029875;28;20037;-84
2022/10/08 09:03:57;;;;;;;12.00;4.18;;;;;;;11.01;84.57;99119.72;5033633;28;20120;-83
2022/10/08 09:06:26;;;;;;;10.20;4.13;;;;;;;10.98;84.54;99114.06;5043558;28;20471;-84
2022/10/08 09:08:54;;;;;;;12.60;4.53;;;;;;;11.03;83.96;99124.84;5005032;28;20040;-84
2022/10/08 09:11:22;;;;;;;13.38;5.60;;;;;;;10.99;84.50;99123.69;5025875;28;20506;-84
2022/10/08 09:14:06;;;;;;;10.52;4.60;;;;;;;11.12;83.68;99123.34;5044449;28;20079;-84
2022/10/08 09:16:34;;;;;;;8.68;4.45;;;;;;;11.16;83.69;99127.16;5049189;28;20163;-83
2022/10/08 09:18:59;;;;;;;8.80;4.28;;;;;;;10.80;83.70;99090.28;5032986;28;20033;-83
2022/10/08 09:21:29;;;;;;;11.45;4.78;;;;;;;11.10;83.95;99128.13;5028110;28;20029;-83
2022/10/08 09:23:55;;;;;;;15.95;4.13;;;;;;;11.13;84.06;99130.31;5051524;28;20119;-82
2022/10/08 09:26:21;;;;;;;10.93;4.55;;;;;;;11.13;84.52;99154.38;5018914;28;20108;-82
2022/10/08 09:28:50;;;;;;;13.45;5.45;;;;;;;11.25;84.16;99157.75;5035486;28;20435;-84
2022/10/08 09:31:19;;;;;;;9.90;4.53;;;;;;;11.22;83.68;99160.91;5032078;28;20024;-81
2022/10/08 09:33:51;;;;;;;16.00;4.35;;;;;;;11.19;84.30;99158.72;5049001;28;20048;-84
2022/10/08 09:36:28;;;;;;;11.75;5.53;;;;;;;11.30;83.46;99166.66;5030471;28;20033;-83
2022/10/08 09:38:58;;;;;;;11.07;4.13;;;;;;;11.14;84.24;99153.28;5043543;28;20087;-83
2022/10/08 09:41:27;;;;;;;8.73;4.10;;;;;;;11.26;84.33;99172.72;5050479;28;20013;-83
2022/10/08 09:44:11;;;;;;;11.18;4.90;;;;;;;11.33;83.55;99170.69;5033693;28;20588;-83
2022/10/08 09:46:36;;;;;;;11.80;4.43;;;;;;;11.25;83.66;99155.06;5048749;28;20028;-83
2022/10/08 09:49:27;;;;;;;8.80;3.65;;;;;;;11.30;83.83;99179.19;5033028;28;20477;-83
2022/10/08 09:51:54;;;;;;;8.10;4.15;;;;;;;11.23;83.41;99160.66;5008914;28;20041;-83
2022/10/08 09:54:34;;;;;;;10.73;4.00;;;;;;;11.26;84.16;99175.41;5023657;28;20465;-82
2022/10/08 09:57:00;;;;;;;10.63;4.10;;;;;;;11.12;84.88;99174.91;5034947;28;20029;-83
2022/10/08 09:59:30;;;;;;;9.50;4.60;;;;;;;11.17;84.73;99176.84;5045602;28;20028;-82
2022/10/08 10:01:56;;;;;;;7.55;3.65;;;;;;;11.22;84.09;99179.63;5030251;28;20025;-83
2022/10/08 10:04:35;;;;;;;6.47;3.60;;;;;;;11.11;83.96;99183.19;5051325;28;20032;-82
2022/10/08 10:07:01;;;;;;;12.65;3.95;;;;;;;11.11;84.46;99175.16;5014169;28;21715;-83
2022/10/08 10:09:39;;;;;;;11.00;4.40;;;;;;;11.19;84.92;99190.78;5046301;28;20029;-80
2022/10/08 10:12:14;;;;;;;5.53;3.88;;;;;;;11.40;84.10;99205.28;5047653;28;20043;-80
2022/10/08 10:14:52;;;;;;;8.27;3.65;;;;;;;11.33;84.33;99178.72;5029713;28;20024;-80
2022/10/08 10:17:33;;;;;;;9.38;4.00;;;;;;;11.21;84.11;99183.31;5040173;28;20021;-80
2022/10/08 10:20:09;;;;;;;7.15;3.80;;;;;;;11.48;84.08;99210.19;5027133;28;20401;-80
2022/10/08 10:22:42;;;;;;;8.95;4.60;;;;;;;11.46;83.99;99199.75;5036099;28;20435;-80
2022/10/08 10:25:31;;;;;;;7.75;4.05;;;;;;;11.51;83.79;99196.34;5033131;28;20524;-80
2022/10/08 10:28:10;;;;;;;12.55;4.60;;;;;;;11.43;84.93;99197.56;5042927;28;20813;-80
2022/10/08 10:30:52;;;;;;;11.35;4.53;;;;;;;11.40;85.31;99194.59;5026024;28;20029;-80
2022/10/08 10:33:45;;;;;;;6.30;3.58;;;;;;;11.66;84.10;99216.09;5030252;28;20128;-80
2022/10/08 10:36:14;;;;;;;6.90;4.30;;;;;;;11.56;84.24;99207.09;5047613;28;20033;-80
2022/10/08 10:39:01;;;;;;;6.63;3.33;;;;;;;11.53;83.92;99202.25;5042340;28;20040;-80
2022/10/08 10:41:32;;;;;;;9.20;4.97;;;;;;;11.68;83.35;99214.00;5043084;28;20020;-80
2022/10/08 10:44:09;;;;;;;9.38;3.97;;;;;;;11.73;84.03;99214.06;5044046;28;20025;-80
2022/10/08 10:46:49;;;;;;;6.35;3.75;;;;;;;11.76;83.83;99215.44;5038356;28;20029;-80
2022/10/08 10:49:21;;;;;;;8.13;3.88;;;;;;;11.84;83.60;99215.00;5046473;28;20498;-79
2022/10/08 10:52:05;;;;;;;9.65;4.68;;;;;;;11.79;84.24;99206.94;5026260;28;20497;-79
2022/10/08 10:54:40;;;;;;;13.52;3.83;;;;;;;11.77;84.09;99215.19;5044113;28;21910;-80
2022/10/08 10:57:36;;;;;;;8.90;4.40;;;;;;;11.79;83.83;99198.91;5026771;28;20025;-80
2022/10/08 11:00:14;;;;;;;13.73;4.63;;;;;;;11.98;83.58;99197.53;5032685;28;20045;-80
2022/10/08 11:02:43;;;;;;;10.80;4.55;;;;;;;12.04;83.08;99207.25;5051244;28;20312;-80
2022/10/08 11:05:24;;;;;;;5.72;3.92;;;;;;;11.96;83.71;99199.66;5047310;28;20679;-80
2022/10/08 11:08:20;;;;;;;11.90;4.07;;;;;;;11.87;83.50;99174.41;5046808;28;20083;-79
2022/10/08 11:11:00;;;;;;;10.38;4.50;;;;;;;12.04;83.90;99208.06;5039840;28;20059;-81
2022/10/08 11:13:53;;;;;;;15.50;5.32;;;;;;;12.06;83.78;99197.09;5047567;28;20020;-78
2022/10/08 11:16:37;;;;;;;9.20;5.22;;;;;;;12.08;83.52;99200.34;5028986;28;20817;-82
2022/10/08 11:19:11;;;;;;;12.15;5.47;;;;;;;12.10;82.88;99192.88;5034382;28;20025;-82
2022/10/08 11:22:06;;;;;;;12.98;4.88;;;;;;;12.38;81.95;99206.06;5045823;28;20476;-82
2022/10/08 11:24:58;;;;;;;8.20;4.65;;;;;;;12.34;82.19;99201.47;5024908;28;20086;-83
2022/10/08 11:27:45;;;;;;;7.60;4.90;;;;;;;12.61;81.51;99211.13;5035637;28;20020;-83
2022/10/08 11:30:16;;;;;;;7.05;5.10;;;;;;;12.71;80.73;99194.34;5052967;28;20595;-83
2022/10/08 11:32:51;;;;;;;14.48;5.55;;;;;;;12.83;80.66;99200.34;5007227;28;20491;-83
2022/10/08 11:35:20;;;;;;;6.50;4.40;;;;;;;12.79;80.33;99185.84;5014623;28;20033;-83
2022/10/08 11:37:47;;;;;;;10.23;6.00;;;;;;;12.94;80.38;99198.56;5030333;28;20350;-81
2022/10/08 11:40:42;;;;;;;8.25;4.88;;;;;;;12.99;79.43;99191.38;5049069;28;20060;-81
2022/10/08 11:43:22;;;;;;;12.35;5.50;;;;;;;13.05;79.30;99194.94;5025018;28;20443;-80
2022/10/08 11:46:27;;;;;;;8.88;5.75;;;;;;;13.18;78.32;99200.69;5027343;28;20037;-80